シンガポール/チャンギ の空港の天気 - METARとTAF

シンガポール・チャンギ国際空港 ( WSSS / SIN ) - シンガポール Changi
飛行場実況気象(Metar)
観測時間02/17 22:30 SGT (02/17 14:30 UTC)
風向・風速北北東 1m/s
視程10km以上
天気現象
少しの雲 雲底高度 550m
全天の4割程度の雲 雲底高度 4880m
気温25℃
湿度94%
気圧1013hPa
METARWSSS 171430Z 02002KT 9999 FEW018 SCT160 25/24 Q1013 NOSIG
過去の天気等 Google飛行場航空写真 Wunderground天気予報

過去48時間のMETAR

飛行場予報(TAF)
発表時間: 2/17 19:00 SGT (2/17 11:00 UTC)
予報対象時間: 17日20時 SGT ~ 19日2時 SGT
風向・風速北北東 4m/s
視程10km以上
全天の4割程度の雲 雲底高度 610m
18日14時 SGT ~ 18日17時 SGT に一時的に
視程3000m
天気現象雷雨
少しの積乱雲 雲底高度 370m
全天の8割程度の雲 雲底高度 460m
TAF WSSS 171100Z 1712/1818 02008KT 9999 SCT020
TEMPO 1806/1809 3000 TSRA FEW012CB BKN015